Metar z pełnej godziny Komunikat METAR ze strony awiacja.imgw.pl Metar G00 EPRZ METAR EPRZ 221400Z 30012KT CAVOK 16/05 Q1016 =